createdAt,value
2022-12-13T00:01:54.859Z,6.90
2022-12-13T00:04:25.016Z,7.40
2022-12-13T00:06:54.215Z,6.90
2022-12-13T00:09:23.403Z,7.00
2022-12-13T00:11:52.308Z,7.90
2022-12-13T00:14:20.826Z,7.20
2022-12-13T00:16:49.782Z,6.90
2022-12-13T00:19:20.383Z,7.40
2022-12-13T00:21:48.387Z,7.00
2022-12-13T00:24:16.285Z,7.10
2022-12-13T00:26:44.932Z,6.80
2022-12-13T00:29:12.982Z,6.80
2022-12-13T00:32:00.431Z,6.90
2022-12-13T00:34:29.417Z,7.60
2022-12-13T00:37:00.640Z,8.00
2022-12-13T00:39:28.661Z,9.70
2022-12-13T00:41:57.283Z,7.40
2022-12-13T00:44:25.787Z,7.30
2022-12-13T00:46:53.923Z,9.40
2022-12-13T00:49:21.838Z,9.60
2022-12-13T00:51:49.874Z,8.90
2022-12-13T00:54:18.615Z,8.60
2022-12-13T00:56:46.617Z,7.00
2022-12-13T00:59:15.781Z,8.80
2022-12-13T01:01:44.214Z,9.40
2022-12-13T01:04:12.837Z,10.40
2022-12-13T01:06:45.674Z,8.20
2022-12-13T01:09:20.204Z,9.40
2022-12-13T01:11:49.264Z,8.40
2022-12-13T01:14:18.301Z,12.10
2022-12-13T01:16:46.233Z,12.20
2022-12-13T01:19:14.171Z,9.80
2022-12-13T01:21:42.037Z,8.60
2022-12-13T01:24:10.647Z,7.60
2022-12-13T01:26:38.571Z,8.00
2022-12-13T01:29:06.661Z,8.60
2022-12-13T01:31:34.543Z,10.10
2022-12-13T01:34:10.459Z,8.40
2022-12-13T01:36:43.493Z,9.50
2022-12-13T01:39:15.350Z,10.30
2022-12-13T01:41:50.422Z,8.70
2022-12-13T01:44:55.870Z,8.10
2022-12-13T01:47:46.748Z,7.40
2022-12-13T01:50:32.488Z,7.70
2022-12-13T01:53:01.190Z,8.10
2022-12-13T01:55:34.650Z,8.20
2022-12-13T01:58:12.039Z,7.70
2022-12-13T02:00:41.583Z,7.50
2022-12-13T02:03:21.315Z,8.20
2022-12-13T02:06:17.730Z,8.10
2022-12-13T02:08:46.880Z,8.20
2022-12-13T02:11:15.691Z,8.40
2022-12-13T02:13:43.483Z,9.20
2022-12-13T02:16:31.189Z,8.50
2022-12-13T02:19:38.453Z,9.10
2022-12-13T02:22:27.644Z,8.70
2022-12-13T02:25:18.935Z,9.10
2022-12-13T02:28:30.254Z,9.50
2022-12-13T02:31:14.794Z,9.10
2022-12-13T02:34:01.028Z,10.20
2022-12-13T02:36:36.670Z,10.70
2022-12-13T02:39:32.732Z,10.00
2022-12-13T02:42:21.406Z,10.50
2022-12-13T02:45:20.573Z,9.80
2022-12-13T02:47:54.674Z,10.80
2022-12-13T02:52:52.400Z,9.70
2022-12-13T02:55:23.946Z,11.30
2022-12-13T02:57:54.621Z,10.00
2022-12-13T03:00:30.426Z,10.60
2022-12-13T03:03:20.132Z,10.30
2022-12-13T03:06:15.924Z,9.90
2022-12-13T03:09:08.958Z,9.80
2022-12-13T03:12:12.592Z,10.50
2022-12-13T03:14:59.007Z,10.30
2022-12-13T03:17:31.572Z,10.00
2022-12-13T03:19:59.440Z,10.50
2022-12-13T03:22:27.287Z,11.00
2022-12-13T03:24:55.225Z,10.20
2022-12-13T03:27:23.132Z,10.70
2022-12-13T03:29:50.941Z,10.20
2022-12-13T03:32:18.822Z,11.10
2022-12-13T03:34:50.819Z,10.60
2022-12-13T03:37:28.752Z,10.10
2022-12-13T03:39:57.400Z,10.10
2022-12-13T03:42:25.871Z,12.00
2022-12-13T03:44:53.792Z,10.70
2022-12-13T03:47:21.630Z,10.50
2022-12-13T03:49:54.247Z,11.20
2022-12-13T03:52:22.266Z,11.80
2022-12-13T03:54:50.099Z,12.70
2022-12-13T03:57:17.997Z,16.10
2022-12-13T03:59:45.858Z,18.20
2022-12-13T04:02:13.868Z,22.50
2022-12-13T04:04:58.416Z,21.60
2022-12-13T04:07:34.354Z,17.40
2022-12-13T04:10:03.908Z,14.40
2022-12-13T04:13:10.985Z,12.80
2022-12-13T04:15:38.966Z,13.30
2022-12-13T04:18:07.232Z,12.60
2022-12-13T04:20:35.047Z,13.10
2022-12-13T04:23:09.977Z,13.60
2022-12-13T04:25:39.495Z,12.50
2022-12-13T04:28:08.257Z,13.80
2022-12-13T04:30:36.874Z,12.00
2022-12-13T04:33:04.720Z,11.70
2022-12-13T04:35:32.606Z,12.30
2022-12-13T04:38:00.505Z,13.30
2022-12-13T04:40:28.377Z,13.00
2022-12-13T04:42:56.266Z,13.00
2022-12-13T04:45:24.494Z,13.00
2022-12-13T04:47:52.424Z,13.90
2022-12-13T04:50:20.321Z,14.60
2022-12-13T04:52:48.194Z,11.90
2022-12-13T04:55:16.302Z,12.40
2022-12-13T04:57:44.462Z,10.90
2022-12-13T05:00:13.570Z,10.70
2022-12-13T05:02:42.036Z,12.10
2022-12-13T05:05:10.933Z,11.40
2022-12-13T05:07:42.616Z,11.90
2022-12-13T05:10:11.613Z,11.30
2022-12-13T05:12:39.544Z,11.60
2022-12-13T05:15:08.263Z,11.80
2022-12-13T05:17:36.107Z,11.50
2022-12-13T05:20:04.420Z,12.00
2022-12-13T05:22:32.352Z,11.40
2022-12-13T05:25:00.179Z,11.30
2022-12-13T05:27:27.992Z,10.60
2022-12-13T05:30:04.948Z,11.00
2022-12-13T05:32:42.650Z,10.70
2022-12-13T05:35:13.992Z,10.20
2022-12-13T05:37:42.411Z,9.80
2022-12-13T05:40:10.490Z,9.40
2022-12-13T05:42:39.232Z,10.10
2022-12-13T05:45:08.117Z,10.60
2022-12-13T05:47:35.948Z,10.50
2022-12-13T05:50:04.565Z,10.10
2022-12-13T05:52:32.412Z,10.50
2022-12-13T05:55:01.042Z,9.60
2022-12-13T05:57:29.568Z,8.70
2022-12-13T05:59:57.756Z,7.90
2022-12-13T06:07:24.466Z,8.20
2022-12-13T06:09:52.268Z,8.00
2022-12-13T06:12:43.285Z,7.50
2022-12-13T06:15:21.536Z,6.80
2022-12-13T06:17:50.677Z,6.70
2022-12-13T06:20:23.176Z,7.80
2022-12-13T06:22:53.246Z,7.40
2022-12-13T06:25:29.989Z,7.50
2022-12-13T06:28:01.362Z,7.20
2022-12-13T06:30:30.884Z,7.70
2022-12-13T06:32:58.973Z,8.90
2022-12-13T06:35:28.360Z,9.00
2022-12-13T06:38:01.340Z,9.30
2022-12-13T06:40:30.706Z,8.90
2022-12-13T06:42:58.614Z,8.70
2022-12-13T06:45:26.783Z,9.60
2022-12-13T06:47:56.076Z,9.70
2022-12-13T06:50:23.974Z,8.90
2022-12-13T06:52:51.840Z,8.70
2022-12-13T06:55:23.986Z,11.60
2022-12-13T06:57:52.028Z,10.70
2022-12-13T07:00:21.860Z,11.10
2022-12-13T07:02:55.368Z,11.00
2022-12-13T07:05:25.082Z,12.40
2022-12-13T07:07:53.475Z,10.10
2022-12-13T07:10:23.100Z,11.30
2022-12-13T07:12:51.015Z,12.10
2022-12-13T07:15:18.826Z,11.90
2022-12-13T07:17:50.722Z,14.80
2022-12-13T07:20:20.413Z,12.60
2022-12-13T07:22:58.336Z,11.90
2022-12-13T07:25:29.247Z,10.30
2022-12-13T07:28:01.217Z,10.90
2022-12-13T07:30:40.998Z,10.10
2022-12-13T07:33:09.790Z,11.20
2022-12-13T07:35:37.972Z,11.60
2022-12-13T07:38:08.744Z,10.60
2022-12-13T07:40:38.219Z,10.80
2022-12-13T07:43:06.946Z,11.20
2022-12-13T07:45:35.011Z,11.10
2022-12-13T07:48:07.018Z,8.90
2022-12-13T07:50:37.278Z,8.60
2022-12-13T07:53:08.148Z,8.80
2022-12-13T07:55:36.938Z,10.10
2022-12-13T07:58:13.316Z,10.40
2022-12-13T08:00:46.408Z,16.30
2022-12-13T08:03:25.691Z,14.30
2022-12-13T08:06:07.135Z,12.10
2022-12-13T08:08:35.898Z,10.60
2022-12-13T08:11:11.759Z,9.80
2022-12-13T08:13:41.086Z,9.90
2022-12-13T08:16:28.353Z,10.90
2022-12-13T08:19:03.119Z,9.70
2022-12-13T08:21:55.014Z,10.70
2022-12-13T08:24:26.124Z,11.60
2022-12-13T08:27:01.439Z,9.00
2022-12-13T08:29:33.215Z,9.70
2022-12-13T08:32:09.660Z,10.20
2022-12-13T08:34:38.809Z,9.90
2022-12-13T08:37:07.007Z,9.10
2022-12-13T08:39:37.019Z,10.50
2022-12-13T08:42:15.447Z,10.30
2022-12-13T08:44:46.732Z,11.60
2022-12-13T08:47:24.256Z,12.20
2022-12-13T08:50:04.066Z,11.00
2022-12-13T08:52:39.197Z,10.40
2022-12-13T08:55:13.591Z,8.90
2022-12-13T08:57:43.301Z,9.90
2022-12-13T09:00:17.030Z,10.80
2022-12-13T09:02:45.349Z,12.80
2022-12-13T09:05:33.847Z,8.00
2022-12-13T09:08:22.913Z,6.00
2022-12-13T09:11:11.205Z,7.10
2022-12-13T09:13:50.424Z,7.50
2022-12-13T09:16:24.523Z,6.80
2022-12-13T09:18:55.155Z,5.90
2022-12-13T09:21:31.252Z,6.40
2022-12-13T09:24:01.804Z,6.20
2022-12-13T09:26:38.484Z,7.90
2022-12-13T09:29:10.807Z,7.90
2022-12-13T09:31:40.571Z,7.80
2022-12-13T09:34:10.642Z,9.20
2022-12-13T09:36:38.968Z,9.90
2022-12-13T09:39:06.869Z,7.80
2022-12-13T09:41:40.813Z,7.70
2022-12-13T09:44:31.959Z,7.20
2022-12-13T09:47:13.814Z,7.00
2022-12-13T09:49:52.041Z,7.70
2022-12-13T09:52:24.749Z,9.70
2022-12-13T09:54:56.908Z,8.80
2022-12-13T09:57:34.279Z,9.30
2022-12-13T10:00:07.155Z,7.60
2022-12-13T10:02:45.320Z,6.50
2022-12-13T10:05:22.634Z,6.40
2022-12-13T10:07:55.390Z,6.60
2022-12-13T10:10:23.975Z,5.90
2022-12-13T10:13:00.270Z,7.80
2022-12-13T10:15:30.694Z,9.60
2022-12-13T10:18:03.157Z,7.60
2022-12-13T10:20:32.897Z,7.80
2022-12-13T10:23:52.488Z,8.00
2022-12-13T10:25:54.758Z,8.00
2022-12-13T10:28:33.438Z,7.90
2022-12-13T10:31:02.206Z,6.80
2022-12-13T10:33:31.671Z,8.40
2022-12-13T10:36:08.913Z,7.10
2022-12-13T10:38:46.587Z,12.10
2022-12-13T10:41:31.490Z,8.10
2022-12-13T10:44:22.884Z,7.70
2022-12-13T10:47:10.902Z,5.60
2022-12-13T10:49:59.065Z,6.30
2022-12-13T10:52:32.187Z,5.70
2022-12-13T10:55:23.246Z,6.70
2022-12-13T10:57:54.132Z,7.10
2022-12-13T11:00:37.886Z,6.00
2022-12-13T11:03:07.518Z,6.10
2022-12-13T11:05:38.130Z,8.90
2022-12-13T11:08:16.420Z,7.10
2022-12-13T11:10:44.646Z,7.40
2022-12-13T11:13:36.809Z,9.90
2022-12-13T11:16:35.476Z,14.20
2022-12-13T11:19:15.786Z,17.30
2022-12-13T11:21:48.580Z,6.40
2022-12-13T11:24:24.368Z,9.10
2022-12-13T11:26:58.831Z,10.40
2022-12-13T11:30:12.536Z,9.50
2022-12-13T11:33:01.747Z,10.50
2022-12-13T11:35:49.436Z,9.90
2022-12-13T11:38:59.313Z,6.40
2022-12-13T11:41:36.441Z,14.10
2022-12-13T11:44:13.648Z,11.70
2022-12-13T11:46:45.069Z,11.50
2022-12-13T11:49:20.687Z,10.90
2022-12-13T11:52:01.353Z,9.20
2022-12-13T11:54:38.144Z,10.20
2022-12-13T11:57:19.765Z,12.80
2022-12-13T11:59:53.594Z,12.90
2022-12-13T12:05:28.447Z,10.10
2022-12-13T12:11:19.246Z,8.30
2022-12-13T12:13:58.857Z,8.20
2022-12-13T12:16:49.609Z,7.00
2022-12-13T12:19:21.686Z,7.60
2022-12-13T12:22:15.556Z,10.70
2022-12-13T12:25:05.665Z,9.50
2022-12-13T12:27:48.396Z,10.40
2022-12-13T12:30:23.087Z,10.20
2022-12-13T12:32:54.948Z,10.20
2022-12-13T12:35:52.690Z,10.60
2022-12-13T12:38:23.922Z,7.90
2022-12-13T12:41:16.768Z,7.20
2022-12-13T12:43:54.601Z,7.70
2022-12-13T12:46:42.348Z,8.50
2022-12-13T12:50:03.021Z,8.50
2022-12-13T12:53:13.459Z,8.80
2022-12-13T12:56:10.909Z,9.30
2022-12-13T12:59:00.502Z,8.40
2022-12-13T13:02:03.777Z,9.40
2022-12-13T13:04:42.667Z,9.60
2022-12-13T13:07:28.796Z,9.00
2022-12-13T13:09:57.562Z,7.60
2022-12-13T13:12:30.472Z,7.90
2022-12-13T13:14:58.792Z,8.40
2022-12-13T13:17:26.557Z,7.10
2022-12-13T13:20:12.328Z,7.00
2022-12-13T13:22:43.305Z,8.40
2022-12-13T13:25:22.898Z,11.30
2022-12-13T13:27:51.308Z,9.20
2022-12-13T13:30:25.171Z,12.10
2022-12-13T13:32:55.666Z,15.80
2022-12-13T13:35:33.225Z,23.00
2022-12-13T13:38:16.849Z,19.50
2022-12-13T13:40:44.786Z,14.50
2022-12-13T13:43:12.830Z,12.90
2022-12-13T13:45:50.001Z,13.10
2022-12-13T13:48:46.050Z,13.60
2022-12-13T13:51:29.319Z,19.80
2022-12-13T13:54:22.475Z,19.00
2022-12-13T13:57:38.489Z,17.70
2022-12-13T14:00:17.933Z,33.10
2022-12-13T14:03:29.162Z,23.60
2022-12-13T14:06:26.506Z,58.20
2022-12-13T14:09:25.374Z,26.40
2022-12-13T14:12:23.885Z,20.00
2022-12-13T14:14:51.782Z,19.60
2022-12-13T14:18:00.816Z,21.10
2022-12-13T14:20:45.280Z,23.10
2022-12-13T14:23:48.389Z,24.90
2022-12-13T14:26:37.903Z,22.50
2022-12-13T14:29:16.186Z,30.20
2022-12-13T14:31:47.406Z,34.20
2022-12-13T14:34:30.064Z,31.10
2022-12-13T14:37:06.772Z,32.80
2022-12-13T14:39:34.760Z,28.50
2022-12-13T14:42:22.067Z,26.20
2022-12-13T14:44:50.629Z,28.30
2022-12-13T14:47:20.284Z,35.90
2022-12-13T14:49:53.830Z,58.40
2022-12-13T14:57:29.989Z,42.90
2022-12-13T14:59:59.938Z,47.60
2022-12-13T15:02:31.841Z,45.40
2022-12-13T15:05:03.882Z,36.80
2022-12-13T15:07:40.401Z,36.80
2022-12-13T15:10:31.810Z,27.60
2022-12-13T15:13:00.169Z,25.60
2022-12-13T15:15:32.904Z,31.70
2022-12-13T15:18:10.090Z,34.00
2022-12-13T15:20:41.898Z,38.40
2022-12-13T15:23:21.881Z,31.10
2022-12-13T15:26:28.425Z,27.10
2022-12-13T15:29:10.169Z,26.90
2022-12-13T15:31:40.580Z,25.20
2022-12-13T15:34:28.862Z,26.70
2022-12-13T15:37:30.435Z,25.10
2022-12-13T15:40:08.207Z,39.50
2022-12-13T15:42:39.146Z,102.40
2022-12-13T15:45:19.776Z,86.50
2022-12-13T15:47:49.163Z,59.70
2022-12-13T15:50:36.459Z,45.10
2022-12-13T15:53:21.651Z,41.10
2022-12-13T15:55:49.650Z,39.30
2022-12-13T15:58:35.146Z,39.70
2022-12-13T16:01:05.631Z,34.70
2022-12-13T16:03:45.378Z,36.40
2022-12-13T16:06:22.351Z,36.10
2022-12-13T16:08:54.296Z,38.80
2022-12-13T16:11:34.232Z,43.90
2022-12-13T16:14:30.636Z,47.60
2022-12-13T16:17:09.010Z,45.50
2022-12-13T16:19:37.031Z,42.20
2022-12-13T16:22:08.543Z,35.80
2022-12-13T16:24:37.582Z,28.60
2022-12-13T16:27:08.825Z,29.90
2022-12-13T16:29:36.970Z,29.40
2022-12-13T16:32:08.843Z,31.60
2022-12-13T16:34:37.915Z,34.10
2022-12-13T16:37:09.039Z,38.30
2022-12-13T16:39:54.521Z,37.00
2022-12-13T16:42:26.097Z,38.80
2022-12-13T16:45:17.846Z,37.90
2022-12-13T16:47:49.089Z,44.70
2022-12-13T16:52:49.000Z,47.00
2022-12-13T16:55:17.460Z,47.10
2022-12-13T16:58:02.265Z,49.50
2022-12-13T17:03:00.029Z,44.70
2022-12-13T17:05:29.517Z,46.90
2022-12-13T17:07:57.548Z,46.50
2022-12-13T17:10:26.323Z,47.30
2022-12-13T17:12:54.219Z,46.10
2022-12-13T17:15:22.132Z,47.60
2022-12-13T17:17:50.074Z,43.80
2022-12-13T17:20:18.478Z,42.80
2022-12-13T17:22:46.966Z,44.60
2022-12-13T17:25:15.196Z,46.20
2022-12-13T17:27:43.108Z,45.90
2022-12-13T17:30:20.453Z,42.60
2022-12-13T17:32:48.305Z,49.00
2022-12-13T17:35:18.500Z,50.30
2022-12-13T17:37:46.670Z,50.40
2022-12-13T17:40:16.862Z,47.90
2022-12-13T17:42:45.825Z,47.40
2022-12-13T17:45:13.968Z,45.10
2022-12-13T17:47:42.887Z,43.50
2022-12-13T17:50:10.743Z,40.00
2022-12-13T17:52:39.210Z,38.10
2022-12-13T17:55:11.228Z,37.10
2022-12-13T18:08:39.040Z,36.10
2022-12-13T18:13:56.560Z,41.10
2022-12-13T18:16:34.149Z,38.10
2022-12-13T18:19:07.158Z,37.20
2022-12-13T18:21:37.056Z,38.00
2022-12-13T18:24:09.586Z,36.40
2022-12-13T18:26:37.611Z,40.90
2022-12-13T18:29:05.622Z,34.00
2022-12-13T18:31:33.753Z,31.90
2022-12-13T18:34:01.726Z,30.40
2022-12-13T18:36:30.270Z,30.90
2022-12-13T18:38:58.652Z,29.40
2022-12-13T18:41:29.172Z,31.20
2022-12-13T18:44:02.719Z,29.00
2022-12-13T18:46:37.645Z,29.80
2022-12-13T18:49:06.732Z,30.10
2022-12-13T18:51:34.910Z,29.90
2022-12-13T18:54:03.034Z,31.60
2022-12-13T18:56:31.047Z,31.20
2022-12-13T18:58:59.749Z,29.90
2022-12-13T19:01:28.763Z,33.00
2022-12-13T19:03:57.479Z,33.50
2022-12-13T19:06:27.581Z,35.90
2022-12-13T19:08:57.936Z,42.50
2022-12-13T19:11:27.738Z,55.60
2022-12-13T19:13:58.235Z,55.70
2022-12-13T19:16:26.812Z,56.60
2022-12-13T19:18:55.041Z,65.70
2022-12-13T19:21:23.275Z,72.10
2022-12-13T19:23:56.954Z,75.60
2022-12-13T19:26:31.618Z,107.20
2022-12-13T19:28:59.728Z,122.10
2022-12-13T19:31:32.130Z,129.80
2022-12-13T19:34:02.571Z,125.00
2022-12-13T19:36:32.330Z,125.70
2022-12-13T19:39:01.005Z,111.40
2022-12-13T19:41:32.100Z,97.20
2022-12-13T19:44:04.494Z,93.30
2022-12-13T19:46:33.350Z,84.40
2022-12-13T19:49:01.473Z,69.10
2022-12-13T19:51:33.134Z,59.20
2022-12-13T19:54:04.384Z,53.80
2022-12-13T19:56:32.482Z,43.60
2022-12-13T19:59:01.293Z,40.50
2022-12-13T20:01:29.379Z,38.40
2022-12-13T20:03:59.711Z,38.10
2022-12-13T20:06:27.697Z,36.80
2022-12-13T20:08:55.742Z,35.90
2022-12-13T20:11:24.181Z,35.80
2022-12-13T20:13:55.265Z,34.10
2022-12-13T20:16:25.874Z,31.30
2022-12-13T20:18:57.742Z,29.80
2022-12-13T20:21:27.797Z,28.80
2022-12-13T20:23:56.646Z,29.40
2022-12-13T20:26:26.872Z,26.70
2022-12-13T20:28:55.777Z,27.30
2022-12-13T20:31:27.403Z,30.90
2022-12-13T20:33:56.911Z,53.60
2022-12-13T20:36:27.740Z,44.80
2022-12-13T20:38:57.647Z,42.10
2022-12-13T20:41:28.123Z,43.00
2022-12-13T20:43:59.224Z,50.70
2022-12-13T20:46:29.134Z,56.20
2022-12-13T20:49:00.141Z,63.70
2022-12-13T20:51:29.750Z,76.60
2022-12-13T20:53:58.596Z,67.50
2022-12-13T20:56:29.507Z,62.20
2022-12-13T20:58:58.067Z,74.90
2022-12-13T21:01:28.470Z,75.40
2022-12-13T21:04:00.246Z,74.60
2022-12-13T21:06:29.946Z,72.50
2022-12-13T21:09:05.305Z,73.80
2022-12-13T21:11:38.960Z,76.70
2022-12-13T21:14:16.680Z,61.30
2022-12-13T21:17:09.903Z,48.60
2022-12-13T21:19:40.327Z,40.60
2022-12-13T21:22:08.677Z,40.10
2022-12-13T21:24:36.733Z,38.90
2022-12-13T21:27:06.581Z,38.90
2022-12-13T21:29:34.494Z,44.90
2022-12-13T21:32:02.527Z,51.00
2022-12-13T21:34:30.525Z,58.80
2022-12-13T21:36:58.414Z,56.70
2022-12-13T21:39:29.777Z,63.40
2022-12-13T21:41:58.270Z,64.90
2022-12-13T21:44:26.303Z,69.70
2022-12-13T21:47:11.733Z,66.10
2022-12-13T21:49:41.132Z,66.90
2022-12-13T21:52:09.185Z,57.60
2022-12-13T21:54:37.102Z,55.30
2022-12-13T21:57:23.387Z,50.80
2022-12-13T21:59:51.481Z,55.10
2022-12-13T22:02:19.809Z,52.70
2022-12-13T22:04:49.574Z,56.00
2022-12-13T22:07:23.624Z,54.20
2022-12-13T22:09:53.228Z,55.40
2022-12-13T22:12:33.315Z,50.30
2022-12-13T22:15:01.769Z,49.30
2022-12-13T22:17:35.124Z,53.50
2022-12-13T22:20:06.890Z,54.70
2022-12-13T22:22:34.893Z,56.30
2022-12-13T22:25:03.050Z,57.60
2022-12-13T22:27:31.088Z,56.80
2022-12-13T22:29:59.758Z,57.80
2022-12-13T22:32:31.462Z,61.30
2022-12-13T22:34:59.427Z,56.40
2022-12-13T22:37:27.371Z,53.30
2022-12-13T22:39:55.351Z,50.90
2022-12-13T22:42:23.237Z,49.40
2022-12-13T22:44:51.141Z,52.50
2022-12-13T22:47:19.521Z,48.50
2022-12-13T22:49:48.681Z,53.40
2022-12-13T22:52:17.657Z,52.70
2022-12-13T22:54:45.879Z,52.40
2022-12-13T22:57:14.073Z,55.30
2022-12-13T22:59:42.036Z,53.30
2022-12-13T23:02:10.225Z,55.30
2022-12-13T23:04:39.401Z,74.70
2022-12-13T23:07:07.640Z,72.00
2022-12-13T23:09:35.726Z,65.60
2022-12-13T23:12:22.156Z,69.70
2022-12-13T23:14:51.439Z,69.70
2022-12-13T23:17:19.445Z,69.80
2022-12-13T23:19:51.500Z,66.40
2022-12-13T23:22:23.515Z,72.00
2022-12-13T23:24:52.774Z,75.40
2022-12-13T23:27:22.885Z,71.70
2022-12-13T23:29:50.882Z,69.10
2022-12-13T23:32:19.292Z,69.70
2022-12-13T23:34:47.368Z,67.20
2022-12-13T23:37:15.514Z,59.70
2022-12-13T23:39:43.454Z,57.70
2022-12-13T23:42:11.589Z,57.00
2022-12-13T23:44:39.536Z,62.70
2022-12-13T23:47:07.522Z,61.00
2022-12-13T23:49:35.444Z,60.10
2022-12-13T23:52:03.422Z,58.40
2022-12-13T23:54:31.264Z,56.00
2022-12-13T23:56:59.125Z,61.40
2022-12-13T23:59:27.928Z,65.90
